createdAt,value
2019-02-17T00:02:17.527Z,2.72
2019-02-17T00:04:48.891Z,2.76
2019-02-17T00:07:20.300Z,2.64
2019-02-17T00:09:51.790Z,2.66
2019-02-17T00:12:23.226Z,2.63
2019-02-17T00:14:54.732Z,2.58
2019-02-17T00:17:26.186Z,2.52
2019-02-17T00:19:57.604Z,2.45
2019-02-17T00:22:29.118Z,2.50
2019-02-17T00:25:01.115Z,2.48
2019-02-17T00:27:33.748Z,2.41
2019-02-17T00:30:05.391Z,2.22
2019-02-17T00:32:36.842Z,2.19
2019-02-17T00:35:08.303Z,2.27
2019-02-17T00:37:39.861Z,2.24
2019-02-17T00:40:11.301Z,2.15
2019-02-17T00:42:42.767Z,2.17
2019-02-17T00:45:14.209Z,2.01
2019-02-17T00:47:45.659Z,1.88
2019-02-17T00:50:17.090Z,1.88
2019-02-17T00:52:48.479Z,1.78
2019-02-17T00:55:19.878Z,1.81
2019-02-17T00:57:51.379Z,1.72
2019-02-17T01:00:22.839Z,1.68
2019-02-17T01:02:54.339Z,1.70
2019-02-17T01:05:30.958Z,1.53
2019-02-17T01:08:02.396Z,1.45
2019-02-17T01:10:35.461Z,1.56
2019-02-17T01:13:10.977Z,1.55
2019-02-17T01:15:44.614Z,1.48
2019-02-17T01:18:16.079Z,1.48
2019-02-17T01:20:47.515Z,1.52
2019-02-17T01:23:19.006Z,1.58
2019-02-17T01:25:50.461Z,1.50
2019-02-17T01:28:21.919Z,1.42
2019-02-17T01:30:53.278Z,1.49
2019-02-17T01:33:24.743Z,1.38
2019-02-17T01:35:56.222Z,1.40
2019-02-17T01:38:27.680Z,1.42
2019-02-17T01:40:59.082Z,1.34
2019-02-17T01:43:30.696Z,1.29
2019-02-17T01:46:02.129Z,1.28
2019-02-17T01:48:33.567Z,1.32
2019-02-17T01:51:05.148Z,1.32
2019-02-17T01:53:36.592Z,1.21
2019-02-17T01:56:08.085Z,1.25
2019-02-17T01:58:39.581Z,1.33
2019-02-17T02:01:11.201Z,1.18
2019-02-17T02:03:42.651Z,1.24
2019-02-17T02:06:14.094Z,1.23
2019-02-17T02:08:45.774Z,1.16
2019-02-17T02:11:17.208Z,1.22
2019-02-17T02:13:48.644Z,1.21
2019-02-17T02:16:20.062Z,1.14
2019-02-17T02:18:51.509Z,1.07
2019-02-17T02:21:22.864Z,1.11
2019-02-17T02:23:57.140Z,1.04
2019-02-17T02:26:28.568Z,1.04
2019-02-17T02:29:00.050Z,0.96
2019-02-17T02:31:31.467Z,0.96
2019-02-17T02:34:03.479Z,0.94
2019-02-17T02:36:34.799Z,0.94
2019-02-17T02:39:07.610Z,0.85
2019-02-17T02:41:40.412Z,0.82
2019-02-17T02:44:14.354Z,0.74
2019-02-17T02:46:45.842Z,0.59
2019-02-17T02:49:17.299Z,0.41
2019-02-17T02:51:48.713Z,0.61
2019-02-17T02:54:20.232Z,0.50
2019-02-17T02:56:52.722Z,0.44
2019-02-17T02:59:25.975Z,0.54
2019-02-17T03:01:57.448Z,0.35
2019-02-17T03:04:29.860Z,0.49
2019-02-17T03:07:07.166Z,0.67
2019-02-17T03:09:38.639Z,0.58
2019-02-17T03:12:10.134Z,0.57
2019-02-17T03:14:41.516Z,0.64
2019-02-17T03:17:12.862Z,0.52
2019-02-17T03:19:44.361Z,0.62
2019-02-17T03:22:15.784Z,0.56
2019-02-17T03:24:47.593Z,0.60
2019-02-17T03:27:19.012Z,0.75
2019-02-17T03:29:50.446Z,0.77
2019-02-17T03:32:21.789Z,0.95
2019-02-17T03:34:53.234Z,0.83
2019-02-17T03:37:26.809Z,0.91
2019-02-17T03:39:58.188Z,0.97
2019-02-17T03:42:29.580Z,0.92
2019-02-17T03:45:02.692Z,0.94
2019-02-17T03:47:34.262Z,0.94
2019-02-17T03:50:05.932Z,0.97
2019-02-17T03:52:37.344Z,0.89
2019-02-17T03:55:09.319Z,0.84
2019-02-17T03:57:40.728Z,0.89
2019-02-17T04:00:16.838Z,0.73
2019-02-17T04:02:45.822Z,0.83
2019-02-17T04:05:17.314Z,0.84
2019-02-17T04:07:48.742Z,0.83
2019-02-17T04:10:20.296Z,0.87
2019-02-17T04:12:51.737Z,1.03
2019-02-17T04:15:23.170Z,1.03
2019-02-17T04:17:54.675Z,1.05
2019-02-17T04:20:26.037Z,1.15
2019-02-17T04:22:57.528Z,1.34
2019-02-17T04:25:28.998Z,1.39
2019-02-17T04:28:00.415Z,1.25
2019-02-17T04:30:31.862Z,1.29
2019-02-17T04:33:04.856Z,1.22
2019-02-17T04:35:36.283Z,1.15
2019-02-17T04:38:07.703Z,1.30
2019-02-17T04:40:41.328Z,1.32
2019-02-17T04:43:12.393Z,1.30
2019-02-17T04:45:43.829Z,1.46
2019-02-17T04:48:15.193Z,1.46
2019-02-17T04:50:46.586Z,1.53
2019-02-17T04:53:21.643Z,1.59
2019-02-17T04:55:55.067Z,1.56
2019-02-17T04:58:26.423Z,1.46
2019-02-17T05:00:57.854Z,1.52
2019-02-17T05:03:29.284Z,1.52
2019-02-17T05:06:00.750Z,1.41
2019-02-17T05:08:32.176Z,1.38
2019-02-17T05:11:03.643Z,1.34
2019-02-17T05:13:35.059Z,1.29
2019-02-17T05:16:06.494Z,1.30
2019-02-17T05:18:37.831Z,1.27
2019-02-17T05:21:10.216Z,1.28
2019-02-17T05:23:41.563Z,1.28
2019-02-17T05:26:13.035Z,0.92
2019-02-17T05:28:44.487Z,1.10
2019-02-17T05:31:15.918Z,1.16
2019-02-17T05:33:47.323Z,1.23
2019-02-17T05:36:18.812Z,1.00
2019-02-17T05:38:50.121Z,1.00
2019-02-17T05:41:21.611Z,1.14
2019-02-17T05:43:53.035Z,1.11
2019-02-17T05:46:24.516Z,1.27
2019-02-17T05:48:55.938Z,1.32
2019-02-17T05:51:27.460Z,1.18
2019-02-17T05:53:58.838Z,1.32
2019-02-17T05:56:31.795Z,1.23
2019-02-17T05:59:03.239Z,1.22
2019-02-17T06:01:34.707Z,1.18
2019-02-17T06:04:06.108Z,1.19
2019-02-17T06:06:37.560Z,1.28
2019-02-17T06:09:12.603Z,1.03
2019-02-17T06:11:43.712Z,1.05
2019-02-17T06:14:15.675Z,0.97
2019-02-17T06:16:47.099Z,0.88
2019-02-17T06:19:18.447Z,1.00
2019-02-17T06:21:49.894Z,0.92
2019-02-17T06:24:21.267Z,0.93
2019-02-17T06:26:52.961Z,0.96
2019-02-17T06:29:24.364Z,0.91
2019-02-17T06:31:55.834Z,1.00
2019-02-17T06:34:27.307Z,0.89
2019-02-17T06:36:58.788Z,1.18
2019-02-17T06:39:30.211Z,1.54
2019-02-17T06:42:01.744Z,1.91
2019-02-17T06:44:33.266Z,1.73
2019-02-17T06:47:06.432Z,1.55
2019-02-17T06:49:39.406Z,1.36
2019-02-17T06:52:10.782Z,1.49
2019-02-17T06:54:43.853Z,1.58
2019-02-17T06:57:37.801Z,1.39
2019-02-17T07:00:17.994Z,1.40
2019-02-17T07:02:49.367Z,1.39
2019-02-17T07:05:48.209Z,1.62
2019-02-17T07:08:19.593Z,1.69
2019-02-17T07:10:54.127Z,2.14
2019-02-17T07:13:25.225Z,2.19
2019-02-17T07:15:56.647Z,2.55
2019-02-17T07:18:28.110Z,3.17
2019-02-17T07:20:59.545Z,3.82
2019-02-17T07:23:31.082Z,4.95
2019-02-17T07:26:05.347Z,5.37
2019-02-17T07:28:36.831Z,4.34
2019-02-17T07:31:09.899Z,5.68
2019-02-17T07:33:41.347Z,4.35
2019-02-17T07:36:12.674Z,3.98
2019-02-17T07:38:44.143Z,3.93
2019-02-17T07:41:15.555Z,4.87
2019-02-17T07:43:47.004Z,5.82
2019-02-17T07:46:18.464Z,9.48
2019-02-17T07:48:49.938Z,7.96
2019-02-17T07:51:21.359Z,6.09
2019-02-17T07:53:52.862Z,6.19
2019-02-17T07:56:24.377Z,5.74
2019-02-17T07:58:55.791Z,5.65
2019-02-17T08:01:27.266Z,6.46
2019-02-17T08:03:58.716Z,6.70
2019-02-17T08:06:30.135Z,7.20
2019-02-17T08:09:01.562Z,7.58
2019-02-17T08:11:34.590Z,7.74
2019-02-17T08:14:06.093Z,8.69
2019-02-17T08:16:41.088Z,7.92
2019-02-17T08:19:12.551Z,7.36
2019-02-17T08:21:44.000Z,7.19
2019-02-17T08:24:15.474Z,7.45
2019-02-17T08:26:46.888Z,7.52
2019-02-17T08:29:18.304Z,8.18
2019-02-17T08:31:55.776Z,10.28
2019-02-17T08:34:22.882Z,10.11
2019-02-17T08:36:54.340Z,8.78
2019-02-17T08:39:25.809Z,8.40
2019-02-17T08:41:57.254Z,8.44
2019-02-17T08:44:28.842Z,9.66
2019-02-17T08:47:00.328Z,10.31
2019-02-17T08:49:31.950Z,9.36
2019-02-17T08:52:03.399Z,9.54
2019-02-17T08:54:34.834Z,9.90
2019-02-17T08:57:06.318Z,11.91
2019-02-17T08:59:38.870Z,11.25
2019-02-17T09:02:10.310Z,10.81
2019-02-17T09:04:41.664Z,9.96
2019-02-17T09:07:13.134Z,10.57
2019-02-17T09:09:44.542Z,10.63
2019-02-17T09:12:16.000Z,10.56
2019-02-17T09:14:47.502Z,10.62
2019-02-17T09:17:18.985Z,11.15
2019-02-17T09:19:50.412Z,11.02
2019-02-17T09:22:25.374Z,10.72
2019-02-17T09:24:56.851Z,10.98
2019-02-17T09:27:28.290Z,13.55
2019-02-17T09:30:02.277Z,12.90
2019-02-17T09:32:33.721Z,12.23
2019-02-17T09:35:05.422Z,12.86
2019-02-17T09:37:36.905Z,13.28
2019-02-17T09:40:10.216Z,12.44
2019-02-17T09:42:47.131Z,12.24
2019-02-17T09:45:19.119Z,13.11
2019-02-17T09:47:50.561Z,13.24
2019-02-17T09:50:22.668Z,12.06
2019-02-17T09:52:54.089Z,11.89
2019-02-17T09:55:25.541Z,12.04
2019-02-17T09:57:56.963Z,12.16
2019-02-17T10:00:28.418Z,12.50
2019-02-17T10:03:00.067Z,12.21
2019-02-17T10:05:33.324Z,12.86
2019-02-17T10:08:05.032Z,13.07
2019-02-17T10:10:36.487Z,12.63
2019-02-17T10:13:07.920Z,12.59
2019-02-17T10:15:42.406Z,12.83
2019-02-17T10:18:13.772Z,12.81
2019-02-17T10:20:45.236Z,14.85
2019-02-17T10:23:17.612Z,15.75
2019-02-17T10:25:49.092Z,14.45
2019-02-17T10:28:22.529Z,15.31
2019-02-17T10:30:53.957Z,14.81
2019-02-17T10:33:25.442Z,13.56
2019-02-17T10:35:56.828Z,13.74
2019-02-17T10:38:28.386Z,13.90
2019-02-17T10:40:59.877Z,13.86
2019-02-17T10:43:31.371Z,13.92
2019-02-17T10:46:02.848Z,13.95
2019-02-17T10:48:34.302Z,14.19
2019-02-17T10:51:05.771Z,14.05
2019-02-17T10:53:37.222Z,14.38
2019-02-17T10:56:08.697Z,14.54
2019-02-17T10:58:41.190Z,14.65
2019-02-17T11:01:12.652Z,14.28
2019-02-17T11:04:03.665Z,14.77
2019-02-17T11:06:35.260Z,14.69
2019-02-17T11:09:21.976Z,14.68
2019-02-17T11:11:54.362Z,14.67
2019-02-17T11:14:25.842Z,14.83
2019-02-17T11:16:57.267Z,14.79
2019-02-17T11:19:28.789Z,15.12
2019-02-17T11:22:00.379Z,15.16
2019-02-17T11:24:31.810Z,15.11
2019-02-17T11:27:03.303Z,15.15
2019-02-17T11:29:34.945Z,15.10
2019-02-17T11:32:06.471Z,15.43
2019-02-17T11:34:37.842Z,15.55
2019-02-17T11:37:09.339Z,15.55
2019-02-17T11:39:40.853Z,15.77
2019-02-17T11:42:12.521Z,15.75
2019-02-17T11:44:44.076Z,15.67
2019-02-17T11:47:15.570Z,15.68
2019-02-17T11:49:47.068Z,15.99
2019-02-17T11:52:18.546Z,15.83
2019-02-17T11:54:49.972Z,16.01
2019-02-17T11:57:21.578Z,15.65
2019-02-17T11:59:53.494Z,15.96
2019-02-17T12:02:25.497Z,15.52
2019-02-17T12:04:57.036Z,15.65
2019-02-17T12:07:28.751Z,15.71
2019-02-17T12:10:00.429Z,15.63
2019-02-17T12:12:31.910Z,16.09
2019-02-17T12:15:04.537Z,16.05
2019-02-17T12:17:36.774Z,16.27
2019-02-17T12:20:32.423Z,16.07
2019-02-17T12:23:14.380Z,16.31
2019-02-17T12:25:54.338Z,16.14
2019-02-17T12:28:34.249Z,15.96
2019-02-17T12:31:06.471Z,15.83
2019-02-17T12:33:37.942Z,16.16
2019-02-17T12:36:09.851Z,16.33
2019-02-17T12:38:41.407Z,16.50
2019-02-17T12:41:12.948Z,16.38
2019-02-17T12:43:44.390Z,16.28
2019-02-17T12:46:15.780Z,16.66
2019-02-17T12:48:48.077Z,16.57
2019-02-17T12:51:22.080Z,16.58
2019-02-17T12:53:59.268Z,16.68
2019-02-17T12:56:29.736Z,16.74
2019-02-17T12:59:02.547Z,16.80
2019-02-17T13:01:33.950Z,16.45
2019-02-17T13:04:05.462Z,16.50
2019-02-17T13:06:36.923Z,16.44
2019-02-17T13:09:09.157Z,16.38
2019-02-17T13:11:42.601Z,16.39
2019-02-17T13:14:15.826Z,16.35
2019-02-17T13:16:47.598Z,16.58
2019-02-17T13:19:19.052Z,16.30
2019-02-17T13:21:50.482Z,16.38
2019-02-17T13:24:21.947Z,16.52
2019-02-17T13:26:53.515Z,16.57
2019-02-17T13:29:25.143Z,16.26
2019-02-17T13:31:56.609Z,16.50
2019-02-17T13:34:30.133Z,16.65
2019-02-17T13:37:01.590Z,16.65
2019-02-17T13:39:35.660Z,16.13
2019-02-17T13:42:07.083Z,16.63
2019-02-17T13:44:38.567Z,16.86
2019-02-17T13:47:09.999Z,17.10
2019-02-17T13:49:41.703Z,16.98
2019-02-17T13:52:13.234Z,17.17
2019-02-17T13:54:44.807Z,16.84
2019-02-17T13:57:16.371Z,16.97
2019-02-17T13:59:48.017Z,16.79
2019-02-17T14:02:19.510Z,17.19
2019-02-17T14:04:51.084Z,16.82
2019-02-17T14:07:22.600Z,16.83
2019-02-17T14:09:56.838Z,16.91
2019-02-17T14:12:28.452Z,17.07
2019-02-17T14:15:00.291Z,16.75
2019-02-17T14:17:31.686Z,16.61
2019-02-17T14:20:07.460Z,16.49
2019-02-17T14:22:38.477Z,16.80
2019-02-17T14:25:11.259Z,16.90
2019-02-17T14:27:42.863Z,16.75
2019-02-17T14:30:14.762Z,17.00
2019-02-17T14:32:46.227Z,17.34
2019-02-17T14:35:17.857Z,17.13
2019-02-17T14:37:49.350Z,16.91
2019-02-17T14:40:20.786Z,16.96
2019-02-17T14:42:52.235Z,17.07
2019-02-17T14:45:23.673Z,17.16
2019-02-17T14:47:55.132Z,17.09
2019-02-17T14:50:26.567Z,17.10
2019-02-17T14:52:57.990Z,17.11
2019-02-17T14:55:29.392Z,16.70
2019-02-17T14:58:05.454Z,16.98
2019-02-17T15:00:34.011Z,16.92
2019-02-17T15:03:05.540Z,17.03
2019-02-17T15:05:36.980Z,16.99
2019-02-17T15:08:08.432Z,16.98
2019-02-17T15:10:40.021Z,16.72
2019-02-17T15:13:11.577Z,16.88
2019-02-17T15:15:43.188Z,16.82
2019-02-17T15:18:14.722Z,16.80
2019-02-17T15:20:48.097Z,16.61
2019-02-17T15:23:19.600Z,16.51
2019-02-17T15:25:51.067Z,16.54
2019-02-17T15:28:22.486Z,16.55
2019-02-17T15:30:54.120Z,16.47
2019-02-17T15:33:25.532Z,16.56
2019-02-17T15:35:57.015Z,16.53
2019-02-17T15:38:28.447Z,16.39
2019-02-17T15:40:59.916Z,15.97
2019-02-17T15:43:31.370Z,16.12
2019-02-17T15:46:02.849Z,15.77
2019-02-17T15:48:34.356Z,15.83
2019-02-17T15:51:06.720Z,15.36
2019-02-17T15:53:38.431Z,15.35
2019-02-17T15:56:10.015Z,15.42
2019-02-17T15:58:41.474Z,15.38
2019-02-17T16:01:12.917Z,15.59
2019-02-17T16:03:45.050Z,15.54
2019-02-17T16:06:16.681Z,15.55
2019-02-17T16:08:48.124Z,15.60
2019-02-17T16:11:21.154Z,15.29
2019-02-17T16:13:52.590Z,15.29
2019-02-17T16:16:24.081Z,15.16
2019-02-17T16:18:55.511Z,14.96
2019-02-17T16:21:26.994Z,14.75
2019-02-17T16:24:00.776Z,14.73
2019-02-17T16:26:32.239Z,14.73
2019-02-17T16:29:03.673Z,14.69
2019-02-17T16:31:35.148Z,14.67
2019-02-17T16:34:06.508Z,14.31
2019-02-17T16:36:38.085Z,14.22
2019-02-17T16:39:13.078Z,14.14
2019-02-17T16:41:44.540Z,14.30
2019-02-17T16:44:16.015Z,14.17
2019-02-17T16:46:47.511Z,14.01
2019-02-17T16:49:18.948Z,13.58
2019-02-17T16:51:50.463Z,13.37
2019-02-17T16:54:21.900Z,13.10
2019-02-17T16:56:53.342Z,13.05
2019-02-17T16:59:24.793Z,12.80
2019-02-17T17:01:56.351Z,12.84
2019-02-17T17:04:27.814Z,12.89
2019-02-17T17:07:00.961Z,12.54
2019-02-17T17:09:32.684Z,12.29
2019-02-17T17:12:04.428Z,12.39
2019-02-17T17:14:35.943Z,12.23
2019-02-17T17:17:07.381Z,11.93
2019-02-17T17:19:38.804Z,11.60
2019-02-17T17:22:10.270Z,11.47
2019-02-17T17:24:41.747Z,11.15
2019-02-17T17:27:13.404Z,10.74
2019-02-17T17:29:44.861Z,10.45
2019-02-17T17:32:16.351Z,10.24
2019-02-17T17:34:49.432Z,10.11
2019-02-17T17:37:22.794Z,9.94
2019-02-17T17:39:54.331Z,9.78
2019-02-17T17:42:25.834Z,9.57
2019-02-17T17:44:57.251Z,9.33
2019-02-17T17:47:28.728Z,9.18
2019-02-17T17:50:00.154Z,8.83
2019-02-17T17:52:31.743Z,8.83
2019-02-17T17:55:03.179Z,8.71
2019-02-17T17:57:34.692Z,8.60
2019-02-17T18:00:07.503Z,8.50
2019-02-17T18:02:39.314Z,8.46
2019-02-17T18:05:10.748Z,8.24
2019-02-17T18:07:42.197Z,8.02
2019-02-17T18:10:14.735Z,7.94
2019-02-17T18:12:46.304Z,7.93
2019-02-17T18:15:17.757Z,7.77
2019-02-17T18:17:54.644Z,7.45
2019-02-17T18:20:22.420Z,7.29
2019-02-17T18:22:54.038Z,7.37
2019-02-17T18:25:25.583Z,7.35
2019-02-17T18:27:57.088Z,7.04
2019-02-17T18:30:30.372Z,6.71
2019-02-17T18:33:01.845Z,6.71
2019-02-17T18:35:35.226Z,6.64
2019-02-17T18:38:08.085Z,6.41
2019-02-17T18:40:44.925Z,6.16
2019-02-17T18:43:12.694Z,6.07
2019-02-17T18:45:44.124Z,6.35
2019-02-17T18:48:15.570Z,6.05
2019-02-17T18:50:46.959Z,5.94
2019-02-17T18:53:18.426Z,5.94
2019-02-17T18:55:49.936Z,5.93
2019-02-17T18:58:21.556Z,5.96
2019-02-17T19:00:53.086Z,5.64
2019-02-17T19:03:24.534Z,5.59
2019-02-17T19:05:57.141Z,5.51
2019-02-17T19:08:28.712Z,5.36
2019-02-17T19:11:00.156Z,5.41
2019-02-17T19:13:31.974Z,5.40
2019-02-17T19:16:03.377Z,5.30
2019-02-17T19:18:34.908Z,5.22
2019-02-17T19:21:06.447Z,4.98
2019-02-17T19:23:37.939Z,5.00
2019-02-17T19:26:09.369Z,4.83
2019-02-17T19:28:40.934Z,4.77
2019-02-17T19:31:12.400Z,4.83
2019-02-17T19:33:43.876Z,4.76
2019-02-17T19:36:15.316Z,4.35
2019-02-17T19:38:46.778Z,4.45
2019-02-17T19:41:18.245Z,4.25
2019-02-17T19:43:49.718Z,4.30
2019-02-17T19:46:21.163Z,4.08
2019-02-17T19:48:52.636Z,4.17
2019-02-17T19:51:24.363Z,4.14
2019-02-17T19:53:55.884Z,4.11
2019-02-17T19:56:27.257Z,4.10
2019-02-17T19:58:58.750Z,4.23
2019-02-17T20:01:30.290Z,4.00
2019-02-17T20:04:32.592Z,4.02
2019-02-17T20:07:04.122Z,3.89
2019-02-17T20:09:35.611Z,3.84
2019-02-17T20:12:07.049Z,3.74
2019-02-17T20:14:38.502Z,3.58
2019-02-17T20:17:10.021Z,3.70
2019-02-17T20:19:41.485Z,3.57
2019-02-17T20:22:12.953Z,3.52
2019-02-17T20:24:44.526Z,3.54
2019-02-17T20:27:15.948Z,3.51
2019-02-17T20:29:47.724Z,3.47
2019-02-17T20:32:23.928Z,3.34
2019-02-17T20:34:55.398Z,3.34
2019-02-17T20:37:26.857Z,3.42
2019-02-17T20:40:00.774Z,3.41
2019-02-17T20:42:32.325Z,3.48
2019-02-17T20:45:03.821Z,3.54
2019-02-17T20:47:35.254Z,3.56
2019-02-17T20:50:06.967Z,3.38
2019-02-17T20:52:38.841Z,3.42
2019-02-17T20:55:10.398Z,3.34
2019-02-17T20:57:41.876Z,3.30
2019-02-17T21:00:13.460Z,3.37
2019-02-17T21:02:44.907Z,3.24
2019-02-17T21:05:16.483Z,3.35
2019-02-17T21:07:47.994Z,3.39
2019-02-17T21:10:19.455Z,3.43
2019-02-17T21:12:50.968Z,3.30
2019-02-17T21:15:22.605Z,3.33
2019-02-17T21:17:54.039Z,3.47
2019-02-17T21:20:25.825Z,3.39
2019-02-17T21:22:57.330Z,3.35
2019-02-17T21:25:28.801Z,3.37
2019-02-17T21:28:00.361Z,3.31
2019-02-17T21:30:31.849Z,3.25
2019-02-17T21:33:03.723Z,3.39
2019-02-17T21:35:35.264Z,3.69
2019-02-17T21:38:06.717Z,3.82
2019-02-17T21:40:38.146Z,3.56
2019-02-17T21:43:09.654Z,3.59
2019-02-17T21:45:41.142Z,3.69
2019-02-17T21:48:12.570Z,3.52
2019-02-17T21:50:44.044Z,3.46
2019-02-17T21:53:20.292Z,3.58
2019-02-17T21:55:50.936Z,3.60
2019-02-17T21:58:23.437Z,3.64
2019-02-17T22:00:56.006Z,3.52
2019-02-17T22:03:27.429Z,3.47
2019-02-17T22:05:58.907Z,3.43
2019-02-17T22:08:38.002Z,3.25
2019-02-17T22:11:09.562Z,3.37
2019-02-17T22:13:40.992Z,3.27
2019-02-17T22:16:12.533Z,3.63
2019-02-17T22:18:43.994Z,3.47
2019-02-17T22:21:15.464Z,3.57
2019-02-17T22:23:46.889Z,3.75
2019-02-17T22:26:18.358Z,3.61
2019-02-17T22:28:49.864Z,3.62
2019-02-17T22:31:21.303Z,3.54
2019-02-17T22:33:52.813Z,3.50
2019-02-17T22:36:24.286Z,3.43
2019-02-17T22:38:59.617Z,3.40
2019-02-17T22:41:31.165Z,3.46
2019-02-17T22:44:02.661Z,3.38
2019-02-17T22:46:34.129Z,3.04
2019-02-17T22:49:05.710Z,3.14
2019-02-17T22:51:37.167Z,3.31
2019-02-17T22:54:08.598Z,3.31
2019-02-17T22:56:40.633Z,3.27
2019-02-17T22:59:12.052Z,3.34
2019-02-17T23:01:43.505Z,3.39
2019-02-17T23:04:15.233Z,3.19
2019-02-17T23:06:53.904Z,3.06
2019-02-17T23:09:20.435Z,3.10
2019-02-17T23:11:51.964Z,3.06
2019-02-17T23:14:23.395Z,3.12
2019-02-17T23:16:54.939Z,3.08
2019-02-17T23:19:26.352Z,2.94
2019-02-17T23:21:57.801Z,2.96
2019-02-17T23:24:29.326Z,3.05
2019-02-17T23:27:00.752Z,2.83
2019-02-17T23:29:32.602Z,2.97
2019-02-17T23:32:04.190Z,2.64
2019-02-17T23:34:35.637Z,2.66
2019-02-17T23:37:07.076Z,2.83
2019-02-17T23:39:38.502Z,2.76
2019-02-17T23:42:10.046Z,2.80
2019-02-17T23:44:41.468Z,2.83
2019-02-17T23:47:12.922Z,2.70
2019-02-17T23:49:44.342Z,2.88
2019-02-17T23:52:17.449Z,2.83
2019-02-17T23:54:48.877Z,2.91
2019-02-17T23:57:20.323Z,2.87
2019-02-17T23:59:53.225Z,2.84
